createdAt,value
2023-12-28T00:00:47.704Z,123.73
2023-12-28T00:01:47.740Z,123.46
2023-12-28T00:02:47.658Z,121.72
2023-12-28T00:03:47.799Z,120.81
2023-12-28T00:04:47.741Z,121.50
2023-12-28T00:05:47.864Z,124.88
2023-12-28T00:06:47.855Z,126.50
2023-12-28T00:07:47.896Z,126.67
2023-12-28T00:08:56.650Z,126.13
2023-12-28T00:09:48.973Z,124.89
2023-12-28T00:10:47.942Z,115.88
2023-12-28T00:11:47.936Z,108.22
2023-12-28T00:12:48.007Z,107.67
2023-12-28T00:13:48.457Z,108.78
2023-12-28T00:14:47.933Z,109.96
2023-12-28T00:15:48.028Z,114.48
2023-12-28T00:16:47.968Z,125.35
2023-12-28T00:17:48.019Z,132.00
2023-12-28T00:18:48.017Z,135.43
2023-12-28T00:19:48.044Z,136.18
2023-12-28T00:20:47.962Z,132.18
2023-12-28T00:21:48.065Z,123.37
2023-12-28T00:22:47.965Z,119.29
2023-12-28T00:23:47.970Z,117.78
2023-12-28T00:24:48.024Z,120.12
2023-12-28T00:25:48.068Z,120.50
2023-12-28T00:26:48.097Z,122.71
2023-12-28T00:27:48.283Z,123.11
2023-12-28T00:28:48.226Z,124.33
2023-12-28T00:29:48.243Z,122.56
2023-12-28T00:30:48.386Z,110.99
2023-12-28T00:31:48.323Z,103.62
2023-12-28T00:32:48.427Z,102.34
2023-12-28T00:33:48.565Z,101.46
2023-12-28T00:34:48.504Z,98.93
2023-12-28T00:35:48.443Z,101.65
2023-12-28T00:36:48.554Z,104.96
2023-12-28T00:37:48.499Z,104.26
2023-12-28T00:38:48.510Z,103.01
2023-12-28T00:39:48.641Z,94.28
2023-12-28T00:40:48.623Z,86.78
2023-12-28T00:41:48.681Z,88.93
2023-12-28T00:42:48.738Z,94.85
2023-12-28T00:43:48.730Z,97.53
2023-12-28T00:44:48.763Z,100.59
2023-12-28T00:45:48.873Z,102.95
2023-12-28T00:46:48.793Z,109.99
2023-12-28T00:47:48.888Z,108.59
2023-12-28T00:48:49.037Z,109.58
2023-12-28T00:49:49.048Z,122.37
2023-12-28T00:50:48.970Z,131.11
2023-12-28T00:51:49.074Z,132.11
2023-12-28T00:52:49.035Z,130.94
2023-12-28T00:53:49.087Z,136.76
2023-12-28T00:54:49.224Z,131.22
2023-12-28T00:55:49.198Z,124.35
2023-12-28T00:56:49.271Z,119.13
2023-12-28T00:57:49.336Z,116.96
2023-12-28T00:58:49.337Z,114.22
2023-12-28T00:59:49.359Z,109.14
2023-12-28T01:00:49.494Z,105.95
2023-12-28T01:01:49.472Z,105.88
2023-12-28T01:02:49.506Z,105.77
2023-12-28T01:03:49.636Z,105.93
2023-12-28T01:04:49.665Z,108.81
2023-12-28T01:05:49.676Z,108.20
2023-12-28T01:06:49.733Z,107.28
2023-12-28T01:07:49.756Z,107.21
2023-12-28T01:08:49.817Z,107.15
2023-12-28T01:09:49.951Z,107.35
2023-12-28T01:10:49.896Z,106.65
2023-12-28T01:11:49.936Z,103.19
2023-12-28T01:12:50.128Z,100.13
2023-12-28T01:13:50.030Z,97.80
2023-12-28T01:14:50.095Z,95.80
2023-12-28T01:15:50.196Z,96.83
2023-12-28T01:16:50.149Z,101.15
2023-12-28T01:17:50.281Z,103.32
2023-12-28T01:18:50.379Z,103.97
2023-12-28T01:19:50.445Z,107.12
2023-12-28T01:20:50.285Z,109.04
2023-12-28T01:21:50.359Z,110.82
2023-12-28T01:22:50.362Z,112.53
2023-12-28T01:23:50.398Z,109.87
2023-12-28T01:24:50.439Z,102.34
2023-12-28T01:25:50.409Z,98.67
2023-12-28T01:26:50.425Z,98.55
2023-12-28T01:27:50.597Z,104.54
2023-12-28T01:28:50.520Z,110.82
2023-12-28T01:29:50.601Z,117.04
2023-12-28T01:30:50.720Z,125.33
2023-12-28T01:31:50.707Z,126.02
2023-12-28T01:32:50.799Z,115.92
2023-12-28T01:33:50.998Z,111.41
2023-12-28T01:34:51.142Z,110.96
2023-12-28T01:35:50.951Z,103.34
2023-12-28T01:36:51.058Z,100.90
2023-12-28T01:37:51.065Z,98.46
2023-12-28T01:38:51.151Z,99.11
2023-12-28T01:39:51.257Z,99.83
2023-12-28T01:40:51.890Z,99.28
2023-12-28T01:41:51.292Z,98.89
2023-12-28T01:42:51.411Z,99.71
2023-12-28T01:43:51.410Z,100.64
2023-12-28T01:44:51.484Z,99.76
2023-12-28T01:45:51.594Z,97.38
2023-12-28T01:46:51.566Z,97.52
2023-12-28T01:47:51.733Z,96.48
2023-12-28T01:48:52.261Z,94.48
2023-12-28T01:49:51.841Z,92.27
2023-12-28T01:50:51.750Z,87.81
2023-12-28T01:51:51.870Z,87.89
2023-12-28T01:52:51.786Z,88.92
2023-12-28T01:53:51.870Z,88.61
2023-12-28T01:54:51.996Z,85.62
2023-12-28T01:55:51.953Z,83.84
2023-12-28T01:56:52.021Z,83.57
2023-12-28T01:57:52.183Z,83.97
2023-12-28T01:58:52.111Z,84.29
2023-12-28T01:59:52.141Z,83.14
2023-12-28T02:00:52.382Z,84.96
2023-12-28T02:01:52.270Z,87.99
2023-12-28T02:02:52.325Z,89.07
2023-12-28T02:03:52.491Z,88.89
2023-12-28T02:04:52.422Z,90.28
2023-12-28T02:05:52.500Z,92.30
2023-12-28T02:06:52.575Z,92.69
2023-12-28T02:07:52.541Z,92.55
2023-12-28T02:08:52.546Z,93.21
2023-12-28T02:09:52.651Z,92.20
2023-12-28T02:10:52.612Z,92.63
2023-12-28T02:11:52.685Z,94.70
2023-12-28T02:12:52.829Z,94.68
2023-12-28T02:13:52.807Z,96.11
2023-12-28T02:14:52.813Z,96.85
2023-12-28T02:15:52.964Z,97.00
2023-12-28T02:16:52.954Z,94.86
2023-12-28T02:17:53.017Z,91.84
2023-12-28T02:18:53.146Z,88.84
2023-12-28T02:19:53.088Z,89.26
2023-12-28T02:20:53.161Z,91.22
2023-12-28T02:21:53.288Z,93.21
2023-12-28T02:22:53.192Z,95.23
2023-12-28T02:23:53.278Z,94.78
2023-12-28T02:24:53.368Z,84.71
2023-12-28T02:25:53.336Z,80.09
2023-12-28T02:26:53.360Z,73.60
2023-12-28T02:27:53.530Z,71.54
2023-12-28T02:28:53.522Z,72.81
2023-12-28T02:29:53.547Z,73.61
2023-12-28T02:30:53.657Z,73.07
2023-12-28T02:31:53.641Z,72.45
2023-12-28T02:32:53.767Z,66.17
2023-12-28T02:33:53.821Z,62.38
2023-12-28T02:34:53.793Z,60.32
2023-12-28T02:35:53.884Z,60.25
2023-12-28T02:36:53.932Z,60.25
2023-12-28T02:37:53.984Z,58.46
2023-12-28T02:38:54.022Z,60.18
2023-12-28T02:39:54.156Z,66.28
2023-12-28T02:40:54.130Z,66.73
2023-12-28T02:41:54.108Z,63.16
2023-12-28T02:42:54.257Z,63.02
2023-12-28T02:43:54.220Z,61.14
2023-12-28T02:44:54.220Z,65.98
2023-12-28T02:45:54.368Z,72.62
2023-12-28T02:46:54.304Z,68.09
2023-12-28T02:47:54.407Z,65.14
2023-12-28T02:48:54.475Z,65.65
2023-12-28T02:49:54.523Z,63.11
2023-12-28T02:50:54.454Z,61.01
2023-12-28T02:51:54.572Z,59.68
2023-12-28T02:52:54.515Z,58.06
2023-12-28T02:53:54.588Z,59.52
2023-12-28T02:54:54.657Z,57.79
2023-12-28T02:55:54.831Z,57.78
2023-12-28T02:56:54.732Z,57.12
2023-12-28T02:57:54.846Z,59.63
2023-12-28T02:58:54.815Z,63.50
2023-12-28T02:59:54.824Z,69.22
2023-12-28T03:00:54.991Z,78.28
2023-12-28T03:01:54.931Z,85.10
2023-12-28T03:02:54.988Z,91.40
2023-12-28T03:03:55.075Z,97.30
2023-12-28T03:04:55.050Z,99.84
2023-12-28T03:05:55.068Z,101.56
2023-12-28T03:06:55.151Z,101.66
2023-12-28T03:07:55.080Z,99.20
2023-12-28T03:08:55.123Z,98.21
2023-12-28T03:09:55.161Z,94.16
2023-12-28T03:10:55.195Z,90.37
2023-12-28T03:11:55.208Z,93.19
2023-12-28T03:12:55.274Z,95.43
2023-12-28T03:13:55.321Z,95.99
2023-12-28T03:14:55.370Z,96.95
2023-12-28T03:15:55.464Z,92.50
2023-12-28T03:16:55.459Z,85.96
2023-12-28T03:17:55.720Z,80.79
2023-12-28T03:18:55.632Z,80.91
2023-12-28T03:19:55.726Z,79.99
2023-12-28T03:20:55.609Z,83.42
2023-12-28T03:21:55.696Z,83.68
2023-12-28T03:22:55.642Z,84.14
2023-12-28T03:23:55.678Z,86.09
2023-12-28T03:24:55.874Z,84.81
2023-12-28T03:25:55.758Z,85.81
2023-12-28T03:26:55.799Z,88.07
2023-12-28T03:27:55.983Z,84.69
2023-12-28T03:28:55.893Z,80.48
2023-12-28T03:29:55.955Z,77.15
2023-12-28T03:30:56.057Z,80.17
2023-12-28T03:31:56.027Z,81.40
2023-12-28T03:32:56.085Z,80.61
2023-12-28T03:33:56.186Z,82.10
2023-12-28T03:34:56.102Z,81.97
2023-12-28T03:35:56.135Z,81.28
2023-12-28T03:36:56.271Z,80.54
2023-12-28T03:37:56.531Z,77.98
2023-12-28T03:38:56.275Z,74.38
2023-12-28T03:39:56.326Z,72.32
2023-12-28T03:40:56.295Z,72.35
2023-12-28T03:41:56.407Z,70.58
2023-12-28T03:42:56.512Z,69.77
2023-12-28T03:43:56.480Z,70.68
2023-12-28T03:44:56.759Z,70.60
2023-12-28T03:45:56.510Z,68.96
2023-12-28T03:46:56.594Z,69.87
2023-12-28T03:47:57.038Z,70.55
2023-12-28T03:48:56.872Z,70.40
2023-12-28T03:49:56.736Z,70.63
2023-12-28T03:50:56.672Z,74.14
2023-12-28T03:51:56.903Z,77.38
2023-12-28T03:52:56.752Z,80.53
2023-12-28T03:53:56.853Z,87.45
2023-12-28T03:54:56.943Z,94.00
2023-12-28T03:55:56.903Z,98.19
2023-12-28T03:56:56.949Z,104.56
2023-12-28T03:57:57.233Z,108.91
2023-12-28T03:58:57.066Z,125.04
2023-12-28T03:59:57.080Z,131.68
2023-12-28T04:00:57.156Z,129.14
2023-12-28T04:01:57.134Z,122.20
2023-12-28T04:02:57.188Z,117.37
2023-12-28T04:03:57.324Z,112.54
2023-12-28T04:04:57.342Z,109.70
2023-12-28T04:05:57.329Z,105.83
2023-12-28T04:06:57.364Z,103.73
2023-12-28T04:07:57.543Z,105.72
2023-12-28T04:08:57.456Z,102.95
2023-12-28T04:09:57.606Z,102.26
2023-12-28T04:10:57.608Z,101.73
2023-12-28T04:11:57.625Z,102.88
2023-12-28T04:12:57.675Z,102.42
2023-12-28T04:13:57.731Z,97.49
2023-12-28T04:14:57.799Z,95.43
2023-12-28T04:15:57.841Z,92.50
2023-12-28T04:16:57.884Z,83.88
2023-12-28T04:17:58.227Z,78.30
2023-12-28T04:18:58.023Z,75.87
2023-12-28T04:19:58.032Z,78.63
2023-12-28T04:20:57.984Z,82.78
2023-12-28T04:21:58.037Z,93.98
2023-12-28T04:22:58.061Z,104.71
2023-12-28T04:23:58.092Z,113.36
2023-12-28T04:24:58.214Z,123.12
2023-12-28T04:25:58.224Z,128.25
2023-12-28T04:26:58.262Z,129.10
2023-12-28T04:27:58.545Z,127.96
2023-12-28T04:28:58.332Z,126.37
2023-12-28T04:29:58.394Z,125.56
2023-12-28T04:30:58.492Z,125.63
2023-12-28T04:31:58.401Z,119.77
2023-12-28T04:32:58.480Z,110.82
2023-12-28T04:33:58.628Z,97.25
2023-12-28T04:34:58.613Z,89.05
2023-12-28T04:35:58.616Z,77.62
2023-12-28T04:36:58.768Z,63.81
2023-12-28T04:37:58.996Z,55.01
2023-12-28T04:38:58.771Z,57.18
2023-12-28T04:39:58.839Z,67.23
2023-12-28T04:40:58.924Z,66.86
2023-12-28T04:41:58.930Z,63.06
2023-12-28T04:42:58.998Z,71.90
2023-12-28T04:43:58.982Z,74.53
2023-12-28T04:44:59.006Z,75.73
2023-12-28T04:45:59.096Z,77.51
2023-12-28T04:46:59.067Z,83.12
2023-12-28T04:47:59.501Z,83.88
2023-12-28T04:48:59.276Z,84.19
2023-12-28T04:49:59.229Z,84.42
2023-12-28T04:50:59.256Z,81.47
2023-12-28T04:51:59.374Z,77.62
2023-12-28T04:52:59.351Z,75.27
2023-12-28T04:53:59.400Z,82.59
2023-12-28T04:54:59.467Z,88.30
2023-12-28T04:55:59.519Z,91.40
2023-12-28T04:57:07.436Z,50.00
2023-12-28T04:58:07.491Z,50.00
2023-12-28T04:59:07.469Z,50.00
2023-12-28T05:00:07.418Z,50.00
2023-12-28T05:01:07.548Z,50.00
2023-12-28T05:02:07.438Z,51.22
2023-12-28T05:03:07.572Z,49.82
2023-12-28T05:04:07.555Z,50.04
2023-12-28T05:05:07.445Z,50.42
2023-12-28T05:06:07.526Z,50.59
2023-12-28T05:07:07.483Z,50.51
2023-12-28T05:08:07.478Z,50.35
2023-12-28T05:09:07.478Z,51.79
2023-12-28T05:10:07.482Z,50.00
2023-12-28T05:11:07.499Z,50.00
2023-12-28T05:12:07.466Z,51.32
2023-12-28T05:13:07.638Z,50.00
2023-12-28T05:14:07.477Z,50.00
2023-12-28T05:15:07.484Z,47.44
2023-12-28T05:16:07.485Z,40.60
2023-12-28T05:17:07.494Z,37.48
2023-12-28T05:18:07.678Z,37.88
2023-12-28T05:19:07.624Z,40.89
2023-12-28T05:20:07.563Z,51.75
2023-12-28T05:21:07.516Z,51.31
2023-12-28T05:22:07.491Z,60.95
2023-12-28T05:23:07.488Z,62.91
2023-12-28T05:24:07.536Z,61.41
2023-12-28T05:25:07.523Z,55.78
2023-12-28T05:26:07.525Z,51.25
2023-12-28T05:27:07.502Z,50.24
2023-12-28T05:28:07.646Z,50.04
2023-12-28T05:29:07.538Z,50.20
2023-12-28T05:30:07.582Z,59.05
2023-12-28T05:31:07.634Z,62.09
2023-12-28T05:32:07.543Z,59.73
2023-12-28T05:33:07.580Z,60.16
2023-12-28T05:34:07.670Z,62.64
2023-12-28T05:35:07.565Z,63.33
2023-12-28T05:36:09.041Z,62.36
2023-12-28T05:37:07.532Z,62.53
2023-12-28T05:38:07.547Z,63.36
2023-12-28T05:39:07.549Z,65.30
2023-12-28T05:40:07.563Z,76.60
2023-12-28T05:41:07.572Z,98.38
2023-12-28T05:42:07.536Z,108.79
2023-12-28T05:43:07.580Z,107.65
2023-12-28T05:44:07.556Z,107.55
2023-12-28T05:45:07.573Z,106.82
2023-12-28T05:46:07.568Z,105.12
2023-12-28T05:47:07.559Z,101.21
2023-12-28T05:48:07.683Z,99.74
2023-12-28T05:49:07.801Z,97.48
2023-12-28T05:50:07.680Z,99.91
2023-12-28T05:51:07.588Z,99.91
2023-12-28T05:52:07.610Z,101.49
2023-12-28T05:53:07.584Z,102.86
2023-12-28T05:54:09.426Z,103.62
2023-12-28T05:55:07.598Z,112.50
2023-12-28T05:56:07.623Z,116.46
2023-12-28T05:57:07.624Z,116.66
2023-12-28T05:58:07.605Z,115.69
2023-12-28T05:59:07.580Z,112.69
2023-12-28T06:00:07.617Z,107.07
2023-12-28T06:01:07.667Z,99.91
2023-12-28T06:02:07.588Z,96.66
2023-12-28T06:03:07.590Z,95.93
2023-12-28T06:04:07.675Z,100.80
2023-12-28T06:05:07.709Z,105.41
2023-12-28T06:06:07.596Z,107.38
2023-12-28T06:07:07.674Z,112.53
2023-12-28T06:08:07.732Z,114.54
2023-12-28T06:09:07.798Z,114.22
2023-12-28T06:10:07.851Z,113.56
2023-12-28T06:11:07.894Z,113.40
2023-12-28T06:12:07.976Z,115.18
2023-12-28T06:13:07.992Z,118.15
2023-12-28T06:14:08.059Z,122.49
2023-12-28T06:15:08.121Z,123.42
2023-12-28T06:16:08.189Z,123.14
2023-12-28T06:17:08.138Z,121.24
2023-12-28T06:18:08.196Z,121.46
2023-12-28T06:19:08.321Z,124.28
2023-12-28T06:20:08.370Z,126.58
2023-12-28T06:21:08.305Z,128.03
2023-12-28T06:22:08.333Z,125.79
2023-12-28T06:23:08.380Z,124.69
2023-12-28T06:24:08.447Z,122.86
2023-12-28T06:25:08.494Z,122.86
2023-12-28T06:26:08.591Z,121.95
2023-12-28T06:27:08.666Z,122.12
2023-12-28T06:28:08.672Z,120.32
2023-12-28T06:29:08.673Z,120.92
2023-12-28T06:30:08.793Z,120.15
2023-12-28T06:31:08.824Z,128.70
2023-12-28T06:32:08.802Z,140.51
2023-12-28T06:33:08.938Z,141.93
2023-12-28T06:34:09.243Z,143.70
2023-12-28T06:35:08.881Z,144.68
2023-12-28T06:36:08.922Z,142.60
2023-12-28T06:37:08.972Z,142.17
2023-12-28T06:38:09.030Z,142.16
2023-12-28T06:39:09.091Z,142.22
2023-12-28T06:40:09.128Z,137.77
2023-12-28T06:41:09.189Z,132.94
2023-12-28T06:42:09.236Z,130.43
2023-12-28T06:43:09.280Z,131.45
2023-12-28T06:44:09.323Z,134.11
2023-12-28T06:45:09.396Z,134.15
2023-12-28T06:46:09.370Z,131.74
2023-12-28T06:47:09.472Z,128.43
2023-12-28T06:48:09.549Z,129.62
2023-12-28T06:49:11.584Z,131.29
2023-12-28T06:50:09.563Z,136.00
2023-12-28T06:51:09.574Z,137.64
2023-12-28T06:52:09.639Z,142.68
2023-12-28T06:53:09.655Z,142.87
2023-12-28T06:54:09.655Z,133.23
2023-12-28T06:55:09.713Z,129.11
2023-12-28T06:56:09.775Z,129.62
2023-12-28T06:57:09.828Z,132.71
2023-12-28T06:58:09.943Z,138.15
2023-12-28T06:59:09.938Z,150.77
2023-12-28T07:00:10.026Z,166.61
2023-12-28T07:01:10.151Z,187.50
2023-12-28T07:02:10.118Z,171.49
2023-12-28T07:03:10.140Z,155.72
2023-12-28T07:04:10.148Z,146.33
2023-12-28T07:05:10.217Z,142.74
2023-12-28T07:06:10.390Z,141.45
2023-12-28T07:07:10.249Z,138.64
2023-12-28T07:08:10.297Z,139.05
2023-12-28T07:09:10.353Z,137.29
2023-12-28T07:10:10.408Z,136.38
2023-12-28T07:11:10.437Z,156.21
2023-12-28T07:12:10.440Z,181.45
2023-12-28T07:13:10.552Z,189.31
2023-12-28T07:14:10.503Z,192.03
2023-12-28T07:15:10.548Z,187.84
2023-12-28T07:16:10.663Z,177.96
2023-12-28T07:17:10.670Z,175.85
2023-12-28T07:18:10.825Z,170.79
2023-12-28T07:19:10.847Z,165.73
2023-12-28T07:20:10.797Z,166.77
2023-12-28T07:21:10.998Z,166.32
2023-12-28T07:22:10.832Z,165.62
2023-12-28T07:23:10.836Z,167.68
2023-12-28T07:24:10.920Z,172.89
2023-12-28T07:25:10.927Z,175.50
2023-12-28T07:26:10.945Z,177.50
2023-12-28T07:27:11.008Z,182.16
2023-12-28T07:28:11.046Z,186.70
2023-12-28T07:29:11.108Z,188.43
2023-12-28T07:30:11.137Z,192.32
2023-12-28T07:31:11.218Z,192.71
2023-12-28T07:32:11.209Z,189.61
2023-12-28T07:33:11.376Z,185.66
2023-12-28T07:34:11.328Z,179.44
2023-12-28T07:35:11.328Z,174.02
2023-12-28T07:36:11.327Z,172.41
2023-12-28T07:37:11.369Z,172.68
2023-12-28T07:38:11.392Z,174.66
2023-12-28T07:39:11.397Z,173.90
2023-12-28T07:40:11.455Z,174.11
2023-12-28T07:41:11.470Z,173.31
2023-12-28T07:42:11.508Z,183.99
2023-12-28T07:43:11.565Z,188.15
2023-12-28T07:44:11.590Z,195.22
2023-12-28T07:45:11.659Z,197.82
2023-12-28T07:46:11.692Z,196.88
2023-12-28T07:47:11.738Z,199.98
2023-12-28T07:48:11.923Z,199.93
2023-12-28T07:49:11.888Z,200.17
2023-12-28T07:50:11.804Z,198.99
2023-12-28T07:51:11.871Z,199.70
2023-12-28T07:52:11.883Z,198.51
2023-12-28T07:53:11.918Z,196.69
2023-12-28T07:54:11.969Z,192.52
2023-12-28T07:55:12.016Z,182.58
2023-12-28T07:56:12.014Z,180.20
2023-12-28T07:57:12.068Z,189.39
2023-12-28T07:58:12.128Z,188.46
2023-12-28T07:59:12.101Z,200.00
2023-12-28T08:00:12.248Z,200.52
2023-12-28T08:01:12.371Z,200.00
2023-12-28T08:02:12.249Z,199.55
2023-12-28T08:03:12.304Z,200.00
2023-12-28T08:04:12.496Z,203.14
2023-12-28T08:05:12.394Z,209.38
2023-12-28T08:06:12.516Z,201.12
2023-12-28T08:07:12.505Z,193.46
2023-12-28T08:08:12.509Z,184.12
2023-12-28T08:09:12.505Z,181.56
2023-12-28T08:10:12.559Z,179.24
2023-12-28T08:11:12.618Z,175.77
2023-12-28T08:12:12.572Z,174.58
2023-12-28T08:13:12.639Z,175.79
2023-12-28T08:14:12.643Z,178.40
2023-12-28T08:15:12.685Z,175.67
2023-12-28T08:16:12.726Z,170.06
2023-12-28T08:17:12.750Z,167.27
2023-12-28T08:18:12.825Z,163.34
2023-12-28T08:19:12.912Z,164.29
2023-12-28T08:20:12.834Z,167.91
2023-12-28T08:21:12.829Z,169.45
2023-12-28T08:22:12.906Z,168.96
2023-12-28T08:23:17.801Z,167.18
2023-12-28T08:24:13.939Z,167.29
2023-12-28T08:25:12.920Z,167.36
2023-12-28T08:26:12.907Z,167.73
2023-12-28T08:27:12.922Z,170.12
2023-12-28T08:28:12.913Z,166.98
2023-12-28T08:29:12.947Z,162.72
2023-12-28T08:30:12.966Z,158.77
2023-12-28T08:31:12.954Z,156.59
2023-12-28T08:32:13.076Z,160.88
2023-12-28T08:33:13.052Z,163.21
2023-12-28T08:34:13.025Z,166.01
2023-12-28T08:35:12.936Z,168.04
2023-12-28T08:36:12.938Z,169.56
2023-12-28T08:37:12.979Z,168.06
2023-12-28T08:38:13.117Z,163.36
2023-12-28T08:39:13.055Z,152.95
2023-12-28T08:40:13.104Z,146.17
2023-12-28T08:41:13.128Z,140.89
2023-12-28T08:42:13.293Z,138.82
2023-12-28T08:43:13.235Z,133.35
2023-12-28T08:44:13.391Z,128.50
2023-12-28T08:45:13.299Z,127.71
2023-12-28T08:46:13.370Z,131.82
2023-12-28T08:47:13.345Z,136.45
2023-12-28T08:48:13.578Z,144.29
2023-12-28T08:49:13.606Z,153.16
2023-12-28T08:50:13.605Z,158.85
2023-12-28T08:51:13.526Z,165.29
2023-12-28T08:52:13.649Z,166.88
2023-12-28T08:53:13.647Z,164.24
2023-12-28T08:54:13.657Z,163.93
2023-12-28T08:55:13.718Z,162.92
2023-12-28T08:56:13.854Z,158.84
2023-12-28T08:57:13.823Z,148.14
2023-12-28T08:58:13.889Z,134.30
2023-12-28T08:59:13.869Z,114.27
2023-12-28T09:00:13.848Z,97.03
2023-12-28T09:01:14.020Z,76.14
2023-12-28T09:02:13.951Z,60.85
2023-12-28T09:03:14.057Z,59.21
2023-12-28T09:04:14.076Z,59.99
2023-12-28T09:05:14.110Z,70.06
2023-12-28T09:06:14.219Z,83.73
2023-12-28T09:07:14.230Z,90.92
2023-12-28T09:08:14.195Z,96.41
2023-12-28T09:09:14.270Z,98.06
2023-12-28T09:10:14.275Z,105.48
2023-12-28T09:11:14.298Z,123.97
2023-12-28T09:12:14.382Z,117.74
2023-12-28T09:13:14.384Z,114.30
2023-12-28T09:14:14.457Z,117.01
2023-12-28T09:15:14.509Z,125.09
2023-12-28T09:16:14.636Z,144.07
2023-12-28T09:17:14.557Z,168.27
2023-12-28T09:18:14.702Z,178.17
2023-12-28T09:19:14.753Z,183.92
2023-12-28T09:20:14.706Z,189.32
2023-12-28T09:21:14.786Z,192.68
2023-12-28T09:22:14.811Z,198.82
2023-12-28T09:23:14.817Z,201.62
2023-12-28T09:24:14.863Z,199.41
2023-12-28T09:25:14.860Z,196.83
2023-12-28T09:26:14.903Z,201.46
2023-12-28T09:27:14.925Z,197.65
2023-12-28T09:28:14.935Z,178.78
2023-12-28T09:29:15.022Z,159.05
2023-12-28T09:30:15.084Z,149.70
2023-12-28T09:31:15.290Z,154.76
2023-12-28T09:32:15.105Z,160.30
2023-12-28T09:33:15.203Z,177.42
2023-12-28T09:34:15.224Z,191.78
2023-12-28T09:35:15.207Z,200.61
2023-12-28T09:36:15.228Z,197.50
2023-12-28T09:37:15.260Z,200.15
2023-12-28T09:38:15.346Z,200.00
2023-12-28T09:39:15.348Z,193.26
2023-12-28T09:40:15.396Z,193.66
2023-12-28T09:41:15.533Z,191.59
2023-12-28T09:42:15.460Z,172.60
2023-12-28T09:43:15.506Z,156.02
2023-12-28T09:44:15.551Z,137.42
2023-12-28T09:45:15.577Z,139.77
2023-12-28T09:46:15.625Z,142.11
2023-12-28T09:47:15.643Z,144.13
2023-12-28T09:48:15.813Z,144.72
2023-12-28T09:49:15.777Z,144.82
2023-12-28T09:50:15.768Z,138.11
2023-12-28T09:51:17.495Z,125.00
2023-12-28T09:52:15.838Z,124.03
2023-12-28T09:53:15.791Z,114.60
2023-12-28T09:54:15.842Z,99.35
2023-12-28T09:55:15.857Z,99.18
2023-12-28T09:56:15.865Z,108.84
2023-12-28T09:57:15.835Z,115.12
2023-12-28T09:58:15.890Z,118.81
2023-12-28T09:59:15.822Z,120.88
2023-12-28T10:00:15.840Z,117.94
2023-12-28T10:01:16.006Z,108.61
2023-12-28T10:02:15.869Z,100.66
2023-12-28T10:03:15.867Z,90.41
2023-12-28T10:04:15.857Z,86.20
2023-12-28T10:05:15.833Z,82.82
2023-12-28T10:06:15.917Z,82.60
2023-12-28T10:07:15.820Z,77.11
2023-12-28T10:08:15.827Z,73.08
2023-12-28T10:09:15.831Z,65.59
2023-12-28T10:10:15.842Z,49.90
2023-12-28T10:11:15.853Z,50.00
2023-12-28T10:12:15.864Z,51.56
2023-12-28T10:13:16.170Z,42.51
2023-12-28T10:14:16.654Z,33.46
2023-12-28T10:15:15.876Z,43.05
2023-12-28T10:16:15.875Z,30.62
2023-12-28T10:17:15.872Z,26.92
2023-12-28T10:18:16.000Z,34.27
2023-12-28T10:19:15.974Z,51.49
2023-12-28T10:20:15.880Z,59.79
2023-12-28T10:21:15.902Z,60.41
2023-12-28T10:22:15.888Z,61.85
2023-12-28T10:23:15.879Z,63.72
2023-12-28T10:24:15.864Z,67.00
2023-12-28T10:25:15.894Z,72.00
2023-12-28T10:26:15.865Z,69.01
2023-12-28T10:27:15.893Z,63.45
2023-12-28T10:28:15.902Z,62.83
2023-12-28T10:29:15.917Z,55.61
2023-12-28T10:30:15.910Z,53.49
2023-12-28T10:31:16.123Z,48.31
2023-12-28T10:32:15.870Z,50.00
2023-12-28T10:33:16.004Z,53.53
2023-12-28T10:35:15.967Z,64.66
2023-12-28T10:36:15.929Z,74.31
2023-12-28T10:37:15.896Z,76.24
2023-12-28T10:38:15.910Z,80.50
2023-12-28T10:39:15.893Z,76.93
2023-12-28T10:40:15.902Z,71.50
2023-12-28T10:41:15.924Z,77.75
2023-12-28T10:42:15.933Z,98.49
2023-12-28T10:43:15.957Z,108.45
2023-12-28T10:44:15.913Z,112.55
2023-12-28T10:45:15.904Z,104.58
2023-12-28T10:46:15.916Z,102.05
2023-12-28T10:47:15.930Z,98.54
2023-12-28T10:48:16.045Z,92.77
2023-12-28T10:49:16.144Z,83.29
2023-12-28T10:50:16.019Z,72.07
2023-12-28T10:51:15.952Z,75.45
2023-12-28T10:52:15.967Z,82.30
2023-12-28T10:53:15.926Z,83.97
2023-12-28T10:54:15.915Z,90.29
2023-12-28T10:55:18.461Z,80.09
2023-12-28T10:56:16.012Z,75.54
2023-12-28T10:57:15.947Z,69.50
2023-12-28T10:58:15.942Z,60.02
2023-12-28T10:59:15.941Z,53.49
2023-12-28T11:00:15.935Z,49.79
2023-12-28T11:01:16.032Z,51.91
2023-12-28T11:02:15.959Z,62.77
2023-12-28T11:03:16.013Z,67.60
2023-12-28T11:04:16.047Z,63.23
2023-12-28T11:05:16.006Z,64.15
2023-12-28T11:06:15.945Z,61.09
2023-12-28T11:07:15.942Z,51.94
2023-12-28T11:08:15.946Z,53.56
2023-12-28T11:09:15.938Z,52.75
2023-12-28T11:10:15.961Z,51.58
2023-12-28T11:11:15.942Z,48.29
2023-12-28T11:12:15.957Z,49.73
2023-12-28T11:13:16.018Z,53.05
2023-12-28T11:14:15.970Z,59.82
2023-12-28T11:15:15.967Z,58.63
2023-12-28T11:16:15.999Z,57.65
2023-12-28T11:17:16.124Z,57.60
2023-12-28T11:18:16.042Z,50.52
2023-12-28T11:19:16.083Z,54.09
2023-12-28T11:20:16.026Z,61.38
2023-12-28T11:21:16.003Z,61.75
2023-12-28T11:22:15.993Z,73.18
2023-12-28T11:23:15.990Z,85.46
2023-12-28T11:24:16.005Z,73.41
2023-12-28T11:25:16.000Z,68.47
2023-12-28T11:26:16.002Z,60.39
2023-12-28T11:27:16.024Z,55.14
2023-12-28T11:28:16.006Z,60.91
2023-12-28T11:29:16.019Z,56.04
2023-12-28T11:30:16.101Z,58.36
2023-12-28T11:31:16.112Z,60.78
2023-12-28T11:32:16.040Z,70.31
2023-12-28T11:33:16.090Z,69.90
2023-12-28T11:34:16.032Z,72.77
2023-12-28T11:35:16.217Z,74.85
2023-12-28T11:36:16.007Z,74.36
2023-12-28T11:37:16.010Z,75.61
2023-12-28T11:38:16.017Z,66.39
2023-12-28T11:39:16.022Z,64.40
2023-12-28T11:40:16.020Z,50.12
2023-12-28T11:41:16.040Z,56.68
2023-12-28T11:42:16.065Z,59.58
2023-12-28T11:43:16.049Z,68.59
2023-12-28T11:44:16.032Z,74.64
2023-12-28T11:45:16.046Z,76.02
2023-12-28T11:46:16.024Z,64.58
2023-12-28T11:47:16.040Z,55.64
2023-12-28T11:48:16.196Z,51.73
2023-12-28T11:49:16.175Z,55.21
2023-12-28T11:50:16.056Z,55.86
2023-12-28T11:51:16.027Z,61.00
2023-12-28T11:52:16.056Z,60.22
2023-12-28T11:53:16.104Z,48.99
2023-12-28T11:54:16.131Z,39.88
2023-12-28T11:55:16.173Z,48.22
2023-12-28T11:56:16.247Z,59.66
2023-12-28T11:57:16.274Z,60.50
2023-12-28T11:58:16.307Z,71.67
2023-12-28T11:59:16.381Z,81.23
2023-12-28T12:00:16.439Z,81.71
2023-12-28T12:01:16.505Z,86.15
2023-12-28T12:02:16.487Z,92.67
2023-12-28T12:03:16.605Z,93.64
2023-12-28T12:04:16.718Z,93.61
2023-12-28T12:05:16.645Z,100.87
2023-12-28T12:06:16.867Z,104.89
2023-12-28T12:07:16.814Z,109.73
2023-12-28T12:08:16.738Z,111.85
2023-12-28T12:09:16.799Z,112.65
2023-12-28T12:10:16.835Z,113.40
2023-12-28T12:11:16.830Z,113.17
2023-12-28T12:12:16.871Z,122.35
2023-12-28T12:13:16.950Z,122.62
2023-12-28T12:14:16.958Z,124.54
2023-12-28T12:15:17.038Z,127.16
2023-12-28T12:16:17.019Z,128.51
2023-12-28T12:17:17.040Z,126.75
2023-12-28T12:18:17.144Z,119.73
2023-12-28T12:19:17.205Z,110.42
2023-12-28T12:20:17.175Z,110.08
2023-12-28T12:21:17.209Z,110.12
2023-12-28T12:22:17.278Z,117.60
2023-12-28T12:23:17.323Z,119.36
2023-12-28T12:24:17.358Z,115.89
2023-12-28T12:25:17.386Z,117.17
2023-12-28T12:26:17.396Z,113.87
2023-12-28T12:27:17.447Z,108.89
2023-12-28T12:28:17.546Z,105.86
2023-12-28T12:29:19.801Z,102.54
2023-12-28T12:30:17.669Z,104.34
2023-12-28T12:31:17.609Z,110.40
2023-12-28T12:32:17.510Z,110.15
2023-12-28T12:33:17.563Z,112.14
2023-12-28T12:34:17.717Z,103.87
2023-12-28T12:35:17.584Z,93.52
2023-12-28T12:36:17.521Z,90.67
2023-12-28T12:37:17.538Z,83.47
2023-12-28T12:38:17.519Z,85.48
2023-12-28T12:39:17.525Z,95.35
2023-12-28T12:40:17.580Z,102.29
2023-12-28T12:41:17.579Z,107.25